To NAV CANADA Home Page Login to a new session Search on AWWS site Feedback and Comments Disclaimer Vers la page française équivalente Tips FAQ What's new on the site To the Forecasts and Observations / NOTAM section To "File a Flight Plan" website Publications and other links Update of the User's profile FIC Telephone Numbers My Weather Data Folder Route Weather Data Regional Weather Data Local Weather Data To the Forecasts and Observations / NOTAM section
Request Generated 09/02/2015 at 16:52:11 UTC . Weather information available at that time is displayed.

METAR/TAF

OTTAWA/GATINEAU/QC    

METAR CYND 021600Z 26005KT 200V340 5SM BR OVC009 22/20 A2998 RMK SF8
SLP152 DENSITY ALT 900FT=
METAR CYND 021500Z 26005KT 230V320 5SM BR OVC005 21/19 A2999 RMK SF8
SLP155 DENSITY ALT 800FT=
METAR CYND 021400Z 29004KT 5SM BR OVC005 20/19 A2999 RMK SF8 SLP154
DENSITY ALT 800FT=

TAF AMD CYND 021505Z 0215/0301 26005KT 5SM BR OVC005
BECMG 0216/0218 P6SM NSW SCT020
FM021900 25010KT P6SM BKN030 TEMPO 0221/0301 P6SM -SHRA PROB30
0221/0301 2SM +TSRA BR BKN030CB
RMK NXT FCST BY 021800Z=
Your time UTC time
Weather data provided by Environment Canada and NAV CANADA